sensor_id;sensor_type;location;lat;lon;timestamp;temperature;humidity
10431;DHT22;5262;59.958;17.726;2023-05-10T00:02:09;7.20;76.30
10431;DHT22;5262;59.958;17.726;2023-05-10T00:04:35;7.20;76.60
10431;DHT22;5262;59.958;17.726;2023-05-10T00:07:00;7.30;75.80
10431;DHT22;5262;59.958;17.726;2023-05-10T00:09:26;7.20;76.20
10431;DHT22;5262;59.958;17.726;2023-05-10T00:11:52;7.20;76.90
10431;DHT22;5262;59.958;17.726;2023-05-10T00:14:18;7.20;76.60
10431;DHT22;5262;59.958;17.726;2023-05-10T00:16:44;7.20;77.00
10431;DHT22;5262;59.958;17.726;2023-05-10T00:19:09;7.20;76.70
10431;DHT22;5262;59.958;17.726;2023-05-10T00:21:35;7.20;76.20
10431;DHT22;5262;59.958;17.726;2023-05-10T00:24:01;7.20;76.30
10431;DHT22;5262;59.958;17.726;2023-05-10T00:26:26;7.10;77.00
10431;DHT22;5262;59.958;17.726;2023-05-10T00:28:52;7.00;77.70
10431;DHT22;5262;59.958;17.726;2023-05-10T00:31:18;6.90;77.60
10431;DHT22;5262;59.958;17.726;2023-05-10T00:33:44;6.90;77.40
10431;DHT22;5262;59.958;17.726;2023-05-10T00:36:09;7.00;77.50
10431;DHT22;5262;59.958;17.726;2023-05-10T00:38:35;6.90;78.00
10431;DHT22;5262;59.958;17.726;2023-05-10T00:41:01;6.80;78.20
10431;DHT22;5262;59.958;17.726;2023-05-10T00:43:27;6.80;78.40
10431;DHT22;5262;59.958;17.726;2023-05-10T00:45:53;6.80;78.90
10431;DHT22;5262;59.958;17.726;2023-05-10T00:48:18;6.70;78.50
10431;DHT22;5262;59.958;17.726;2023-05-10T00:50:45;6.70;78.90
10431;DHT22;5262;59.958;17.726;2023-05-10T00:53:11;6.60;79.40
10431;DHT22;5262;59.958;17.726;2023-05-10T00:55:37;6.60;79.30
10431;DHT22;5262;59.958;17.726;2023-05-10T00:58:03;6.60;79.40
10431;DHT22;5262;59.958;17.726;2023-05-10T01:00:29;6.60;78.90
10431;DHT22;5262;59.958;17.726;2023-05-10T01:02:54;6.60;78.90
10431;DHT22;5262;59.958;17.726;2023-05-10T01:05:20;6.60;79.40
10431;DHT22;5262;59.958;17.726;2023-05-10T01:07:46;6.60;79.40
10431;DHT22;5262;59.958;17.726;2023-05-10T01:10:12;6.50;79.90
10431;DHT22;5262;59.958;17.726;2023-05-10T01:12:39;6.60;80.00
10431;DHT22;5262;59.958;17.726;2023-05-10T01:15:06;6.50;80.20
10431;DHT22;5262;59.958;17.726;2023-05-10T01:17:33;6.50;80.40
10431;DHT22;5262;59.958;17.726;2023-05-10T01:20:00;6.50;80.60
10431;DHT22;5262;59.958;17.726;2023-05-10T01:31:39;6.30;82.00
10431;DHT22;5262;59.958;17.726;2023-05-10T01:34:16;6.40;81.50
10431;DHT22;5262;59.958;17.726;2023-05-10T01:37:02;6.40;81.80
10431;DHT22;5262;59.958;17.726;2023-05-10T01:39:44;6.30;81.90
10431;DHT22;5262;59.958;17.726;2023-05-10T01:42:16;6.30;82.70
10431;DHT22;5262;59.958;17.726;2023-05-10T01:44:45;6.40;82.80
10431;DHT22;5262;59.958;17.726;2023-05-10T01:47:15;6.30;82.60
10431;DHT22;5262;59.958;17.726;2023-05-10T01:49:49;6.30;83.20
10431;DHT22;5262;59.958;17.726;2023-05-10T01:52:18;6.30;82.90
10431;DHT22;5262;59.958;17.726;2023-05-10T01:54:50;6.30;83.60
10431;DHT22;5262;59.958;17.726;2023-05-10T01:57:19;6.40;83.70
10431;DHT22;5262;59.958;17.726;2023-05-10T01:59:49;6.30;83.70
10431;DHT22;5262;59.958;17.726;2023-05-10T02:02:15;6.10;84.80
10431;DHT22;5262;59.958;17.726;2023-05-10T02:04:43;6.00;85.40
10431;DHT22;5262;59.958;17.726;2023-05-10T02:07:10;6.00;85.60
10431;DHT22;5262;59.958;17.726;2023-05-10T02:09:36;6.00;86.70
10431;DHT22;5262;59.958;17.726;2023-05-10T02:12:05;5.90;87.00
10431;DHT22;5262;59.958;17.726;2023-05-10T02:14:35;5.80;87.70
10431;DHT22;5262;59.958;17.726;2023-05-10T02:17:03;5.90;87.90
10431;DHT22;5262;59.958;17.726;2023-05-10T02:19:30;6.00;87.80
10431;DHT22;5262;59.958;17.726;2023-05-10T02:21:57;6.00;88.70
10431;DHT22;5262;59.958;17.726;2023-05-10T02:24:24;5.90;89.00
10431;DHT22;5262;59.958;17.726;2023-05-10T02:26:51;5.90;89.30
10431;DHT22;5262;59.958;17.726;2023-05-10T02:29:19;6.00;89.10
10431;DHT22;5262;59.958;17.726;2023-05-10T02:31:45;6.00;88.90
10431;DHT22;5262;59.958;17.726;2023-05-10T02:34:12;5.90;90.20
10431;DHT22;5262;59.958;17.726;2023-05-10T02:36:39;5.90;90.20
10431;DHT22;5262;59.958;17.726;2023-05-10T02:39:06;6.00;90.40
10431;DHT22;5262;59.958;17.726;2023-05-10T02:41:36;6.00;90.70
10431;DHT22;5262;59.958;17.726;2023-05-10T02:44:02;5.80;90.60
10431;DHT22;5262;59.958;17.726;2023-05-10T02:46:29;5.80;91.20
10431;DHT22;5262;59.958;17.726;2023-05-10T02:48:55;5.70;91.30
10431;DHT22;5262;59.958;17.726;2023-05-10T02:51:24;5.70;91.60
10431;DHT22;5262;59.958;17.726;2023-05-10T02:53:50;5.70;91.60
10431;DHT22;5262;59.958;17.726;2023-05-10T02:56:31;5.70;92.00
10431;DHT22;5262;59.958;17.726;2023-05-10T02:58:58;5.70;92.30
10431;DHT22;5262;59.958;17.726;2023-05-10T03:01:24;5.70;92.40
10431;DHT22;5262;59.958;17.726;2023-05-10T03:03:49;5.70;92.70
10431;DHT22;5262;59.958;17.726;2023-05-10T03:06:15;5.70;92.90
10431;DHT22;5262;59.958;17.726;2023-05-10T03:08:42;5.70;92.90
10431;DHT22;5262;59.958;17.726;2023-05-10T03:11:28;5.70;92.90
10431;DHT22;5262;59.958;17.726;2023-05-10T03:16:39;5.80;93.10
10431;DHT22;5262;59.958;17.726;2023-05-10T03:19:06;5.80;93.10
10431;DHT22;5262;59.958;17.726;2023-05-10T03:21:37;5.90;93.10
10431;DHT22;5262;59.958;17.726;2023-05-10T03:24:07;5.90;93.10
10431;DHT22;5262;59.958;17.726;2023-05-10T03:26:34;6.00;93.60
10431;DHT22;5262;59.958;17.726;2023-05-10T03:29:03;6.00;93.40
10431;DHT22;5262;59.958;17.726;2023-05-10T03:31:29;6.00;93.50
10431;DHT22;5262;59.958;17.726;2023-05-10T03:33:55;6.10;93.20
10431;DHT22;5262;59.958;17.726;2023-05-10T03:36:21;6.20;93.10
10431;DHT22;5262;59.958;17.726;2023-05-10T03:38:46;6.20;93.30
10431;DHT22;5262;59.958;17.726;2023-05-10T03:41:12;6.20;93.40
10431;DHT22;5262;59.958;17.726;2023-05-10T03:43:38;6.20;93.30
10431;DHT22;5262;59.958;17.726;2023-05-10T03:46:04;6.20;93.70
10431;DHT22;5262;59.958;17.726;2023-05-10T03:48:31;6.30;93.20
10431;DHT22;5262;59.958;17.726;2023-05-10T03:50:57;6.30;93.40
10431;DHT22;5262;59.958;17.726;2023-05-10T03:53:22;6.30;93.80
10431;DHT22;5262;59.958;17.726;2023-05-10T03:55:48;6.30;94.00
10431;DHT22;5262;59.958;17.726;2023-05-10T03:58:14;6.40;93.50
10431;DHT22;5262;59.958;17.726;2023-05-10T04:00:40;6.50;93.70
10431;DHT22;5262;59.958;17.726;2023-05-10T04:03:11;6.60;93.50
10431;DHT22;5262;59.958;17.726;2023-05-10T04:05:37;6.70;92.90
10431;DHT22;5262;59.958;17.726;2023-05-10T04:08:03;6.80;93.00
10431;DHT22;5262;59.958;17.726;2023-05-10T04:10:29;6.80;93.10
10431;DHT22;5262;59.958;17.726;2023-05-10T04:12:55;7.00;92.90
10431;DHT22;5262;59.958;17.726;2023-05-10T04:15:21;7.00;92.60
10431;DHT22;5262;59.958;17.726;2023-05-10T04:17:46;7.10;92.60
10431;DHT22;5262;59.958;17.726;2023-05-10T04:20:12;7.20;92.40
10431;DHT22;5262;59.958;17.726;2023-05-10T04:22:38;7.30;92.00
10431;DHT22;5262;59.958;17.726;2023-05-10T04:25:04;7.40;91.70
10431;DHT22;5262;59.958;17.726;2023-05-10T04:27:30;7.40;92.10
10431;DHT22;5262;59.958;17.726;2023-05-10T04:29:56;7.50;91.50
10431;DHT22;5262;59.958;17.726;2023-05-10T04:32:22;7.60;91.60
10431;DHT22;5262;59.958;17.726;2023-05-10T04:34:48;7.60;91.60
10431;DHT22;5262;59.958;17.726;2023-05-10T04:37:13;7.70;91.40
10431;DHT22;5262;59.958;17.726;2023-05-10T04:39:39;7.80;91.30
10431;DHT22;5262;59.958;17.726;2023-05-10T04:42:05;7.90;91.00
10431;DHT22;5262;59.958;17.726;2023-05-10T04:44:31;8.00;91.00
10431;DHT22;5262;59.958;17.726;2023-05-10T04:46:57;8.00;90.70
10431;DHT22;5262;59.958;17.726;2023-05-10T04:49:23;8.10;90.50
10431;DHT22;5262;59.958;17.726;2023-05-10T04:51:49;8.10;90.50
10431;DHT22;5262;59.958;17.726;2023-05-10T04:54:14;8.20;90.50
10431;DHT22;5262;59.958;17.726;2023-05-10T04:56:40;8.30;90.80
10431;DHT22;5262;59.958;17.726;2023-05-10T04:59:06;8.40;90.70
10431;DHT22;5262;59.958;17.726;2023-05-10T05:01:32;8.50;90.20
10431;DHT22;5262;59.958;17.726;2023-05-10T05:03:57;8.60;90.50
10431;DHT22;5262;59.958;17.726;2023-05-10T05:06:23;8.60;90.20
10431;DHT22;5262;59.958;17.726;2023-05-10T05:08:50;8.80;90.00
10431;DHT22;5262;59.958;17.726;2023-05-10T05:11:19;8.80;89.20
10431;DHT22;5262;59.958;17.726;2023-05-10T05:13:46;9.00;90.30
10431;DHT22;5262;59.958;17.726;2023-05-10T05:16:12;9.10;88.00
10431;DHT22;5262;59.958;17.726;2023-05-10T05:18:37;9.20;87.50
10431;DHT22;5262;59.958;17.726;2023-05-10T05:21:12;9.30;88.90
10431;DHT22;5262;59.958;17.726;2023-05-10T05:23:38;9.40;87.90
10431;DHT22;5262;59.958;17.726;2023-05-10T05:26:04;9.60;87.90
10431;DHT22;5262;59.958;17.726;2023-05-10T05:28:29;9.70;86.50
10431;DHT22;5262;59.958;17.726;2023-05-10T05:30:58;9.80;86.10
10431;DHT22;5262;59.958;17.726;2023-05-10T05:33:23;9.90;86.40
10431;DHT22;5262;59.958;17.726;2023-05-10T05:35:49;10.00;83.90
10431;DHT22;5262;59.958;17.726;2023-05-10T05:38:16;10.10;83.70
10431;DHT22;5262;59.958;17.726;2023-05-10T05:40:42;10.20;83.50
10431;DHT22;5262;59.958;17.726;2023-05-10T05:43:08;10.40;85.30
10431;DHT22;5262;59.958;17.726;2023-05-10T05:45:34;10.50;83.80
10431;DHT22;5262;59.958;17.726;2023-05-10T05:47:59;10.80;83.80
10431;DHT22;5262;59.958;17.726;2023-05-10T05:50:25;11.00;82.30
10431;DHT22;5262;59.958;17.726;2023-05-10T05:52:51;11.30;81.60
10431;DHT22;5262;59.958;17.726;2023-05-10T05:55:16;11.50;80.10
10431;DHT22;5262;59.958;17.726;2023-05-10T05:57:42;11.90;80.00
10431;DHT22;5262;59.958;17.726;2023-05-10T06:00:08;12.10;79.20
10431;DHT22;5262;59.958;17.726;2023-05-10T06:02:33;12.40;79.60
10431;DHT22;5262;59.958;17.726;2023-05-10T06:04:59;12.60;78.50
10431;DHT22;5262;59.958;17.726;2023-05-10T06:07:25;12.80;76.70
10431;DHT22;5262;59.958;17.726;2023-05-10T06:09:51;12.80;76.00
10431;DHT22;5262;59.958;17.726;2023-05-10T06:12:16;13.00;74.10
10431;DHT22;5262;59.958;17.726;2023-05-10T06:14:42;13.20;73.80
10431;DHT22;5262;59.958;17.726;2023-05-10T06:17:08;13.20;72.60
10431;DHT22;5262;59.958;17.726;2023-05-10T06:19:33;13.40;73.40
10431;DHT22;5262;59.958;17.726;2023-05-10T06:21:59;13.70;71.20
10431;DHT22;5262;59.958;17.726;2023-05-10T06:24:25;14.20;72.10
10431;DHT22;5262;59.958;17.726;2023-05-10T06:26:50;14.40;70.30
10431;DHT22;5262;59.958;17.726;2023-05-10T06:29:16;14.60;69.40
10431;DHT22;5262;59.958;17.726;2023-05-10T06:31:42;14.90;67.60
10431;DHT22;5262;59.958;17.726;2023-05-10T06:34:07;15.50;67.70
10431;DHT22;5262;59.958;17.726;2023-05-10T06:36:33;15.60;66.40
10431;DHT22;5262;59.958;17.726;2023-05-10T06:38:59;16.10;65.60
10431;DHT22;5262;59.958;17.726;2023-05-10T06:41:25;16.40;63.40
10431;DHT22;5262;59.958;17.726;2023-05-10T06:43:50;17.00;62.80
10431;DHT22;5262;59.958;17.726;2023-05-10T06:46:16;18.10;61.10
10431;DHT22;5262;59.958;17.726;2023-05-10T06:48:42;18.50;58.30
10431;DHT22;5262;59.958;17.726;2023-05-10T06:51:07;18.50;59.60
10431;DHT22;5262;59.958;17.726;2023-05-10T06:53:33;19.30;56.80
10431;DHT22;5262;59.958;17.726;2023-05-10T06:55:58;20.10;55.20
10431;DHT22;5262;59.958;17.726;2023-05-10T06:58:24;19.90;54.70
10431;DHT22;5262;59.958;17.726;2023-05-10T07:00:50;20.50;52.20
10431;DHT22;5262;59.958;17.726;2023-05-10T07:03:16;20.80;51.30
10431;DHT22;5262;59.958;17.726;2023-05-10T07:05:41;20.90;49.50
10431;DHT22;5262;59.958;17.726;2023-05-10T07:08:07;21.30;49.60
10431;DHT22;5262;59.958;17.726;2023-05-10T07:10:33;21.10;47.80
10431;DHT22;5262;59.958;17.726;2023-05-10T07:12:59;21.80;48.10
10431;DHT22;5262;59.958;17.726;2023-05-10T07:15:26;22.00;46.00
10431;DHT22;5262;59.958;17.726;2023-05-10T07:17:52;22.40;45.70
10431;DHT22;5262;59.958;17.726;2023-05-10T07:20:18;20.70;44.40
10431;DHT22;5262;59.958;17.726;2023-05-10T07:22:43;21.70;46.00
10431;DHT22;5262;59.958;17.726;2023-05-10T07:25:09;22.70;44.80
10431;DHT22;5262;59.958;17.726;2023-05-10T07:27:35;23.80;43.60
10431;DHT22;5262;59.958;17.726;2023-05-10T07:30:00;22.60;43.00
10431;DHT22;5262;59.958;17.726;2023-05-10T07:32:26;23.00;43.30
10431;DHT22;5262;59.958;17.726;2023-05-10T07:34:52;23.40;41.70
10431;DHT22;5262;59.958;17.726;2023-05-10T07:37:18;23.00;40.60
10431;DHT22;5262;59.958;17.726;2023-05-10T07:39:43;23.80;39.40
10431;DHT22;5262;59.958;17.726;2023-05-10T07:42:09;23.90;39.40
10431;DHT22;5262;59.958;17.726;2023-05-10T07:44:35;23.20;40.30
10431;DHT22;5262;59.958;17.726;2023-05-10T07:47:00;23.80;39.00
10431;DHT22;5262;59.958;17.726;2023-05-10T07:49:26;24.70;38.90
10431;DHT22;5262;59.958;17.726;2023-05-10T07:51:51;24.60;37.90
10431;DHT22;5262;59.958;17.726;2023-05-10T07:54:17;25.20;38.10
10431;DHT22;5262;59.958;17.726;2023-05-10T07:56:43;25.30;39.30
10431;DHT22;5262;59.958;17.726;2023-05-10T07:59:16;25.60;36.40
10431;DHT22;5262;59.958;17.726;2023-05-10T08:01:43;25.90;35.50
10431;DHT22;5262;59.958;17.726;2023-05-10T08:04:08;25.60;36.50
10431;DHT22;5262;59.958;17.726;2023-05-10T08:06:34;26.30;35.10
10431;DHT22;5262;59.958;17.726;2023-05-10T08:09:00;25.80;34.70
10431;DHT22;5262;59.958;17.726;2023-05-10T08:11:26;25.00;35.30
10431;DHT22;5262;59.958;17.726;2023-05-10T08:13:53;26.00;35.30
10431;DHT22;5262;59.958;17.726;2023-05-10T08:16:19;26.80;34.80
10431;DHT22;5262;59.958;17.726;2023-05-10T08:18:46;26.60;32.60
10431;DHT22;5262;59.958;17.726;2023-05-10T08:21:13;26.30;32.10
10431;DHT22;5262;59.958;17.726;2023-05-10T08:23:39;26.10;31.40
10431;DHT22;5262;59.958;17.726;2023-05-10T08:26:05;26.40;32.70
10431;DHT22;5262;59.958;17.726;2023-05-10T08:28:30;26.80;33.40
10431;DHT22;5262;59.958;17.726;2023-05-10T08:30:56;26.70;32.50
10431;DHT22;5262;59.958;17.726;2023-05-10T08:33:22;27.20;32.60
10431;DHT22;5262;59.958;17.726;2023-05-10T08:35:47;27.30;32.90
10431;DHT22;5262;59.958;17.726;2023-05-10T08:38:13;26.60;30.70
10431;DHT22;5262;59.958;17.726;2023-05-10T08:40:41;26.60;33.10
10431;DHT22;5262;59.958;17.726;2023-05-10T08:43:10;27.00;33.90
10431;DHT22;5262;59.958;17.726;2023-05-10T08:45:40;26.40;31.40
10431;DHT22;5262;59.958;17.726;2023-05-10T08:48:07;26.80;32.20
10431;DHT22;5262;59.958;17.726;2023-05-10T08:50:41;27.20;30.40
10431;DHT22;5262;59.958;17.726;2023-05-10T08:53:12;27.60;30.00
10431;DHT22;5262;59.958;17.726;2023-05-10T08:55:39;27.40;29.80
10431;DHT22;5262;59.958;17.726;2023-05-10T08:58:06;26.70;30.10
10431;DHT22;5262;59.958;17.726;2023-05-10T09:00:33;26.50;29.20
10431;DHT22;5262;59.958;17.726;2023-05-10T09:02:59;25.80;29.50
10431;DHT22;5262;59.958;17.726;2023-05-10T09:05:25;26.60;30.80
10431;DHT22;5262;59.958;17.726;2023-05-10T09:07:52;27.50;29.40
10431;DHT22;5262;59.958;17.726;2023-05-10T09:10:19;26.90;29.10
10431;DHT22;5262;59.958;17.726;2023-05-10T09:12:45;27.40;29.70
10431;DHT22;5262;59.958;17.726;2023-05-10T09:15:11;27.30;29.50
10431;DHT22;5262;59.958;17.726;2023-05-10T09:17:40;26.50;27.80
10431;DHT22;5262;59.958;17.726;2023-05-10T09:20:07;26.00;29.00
10431;DHT22;5262;59.958;17.726;2023-05-10T09:22:36;26.30;27.70
10431;DHT22;5262;59.958;17.726;2023-05-10T09:25:12;26.40;28.80
10431;DHT22;5262;59.958;17.726;2023-05-10T09:27:45;25.90;29.50
10431;DHT22;5262;59.958;17.726;2023-05-10T09:30:16;26.70;30.20
10431;DHT22;5262;59.958;17.726;2023-05-10T09:32:47;27.70;28.10
10431;DHT22;5262;59.958;17.726;2023-05-10T09:35:18;27.00;27.80
10431;DHT22;5262;59.958;17.726;2023-05-10T09:37:47;26.60;28.10
10431;DHT22;5262;59.958;17.726;2023-05-10T09:40:15;26.90;27.70
10431;DHT22;5262;59.958;17.726;2023-05-10T09:42:43;26.60;28.40
10431;DHT22;5262;59.958;17.726;2023-05-10T09:45:15;25.80;28.90
10431;DHT22;5262;59.958;17.726;2023-05-10T09:47:41;26.90;28.60
10431;DHT22;5262;59.958;17.726;2023-05-10T09:50:07;27.00;27.20
10431;DHT22;5262;59.958;17.726;2023-05-10T09:52:55;26.10;27.50
10431;DHT22;5262;59.958;17.726;2023-05-10T09:58:01;26.90;28.90
10431;DHT22;5262;59.958;17.726;2023-05-10T10:00:28;26.80;28.00
10431;DHT22;5262;59.958;17.726;2023-05-10T10:03:00;25.90;28.40
10431;DHT22;5262;59.958;17.726;2023-05-10T10:05:33;26.90;28.80
10431;DHT22;5262;59.958;17.726;2023-05-10T10:08:00;26.90;29.10
10431;DHT22;5262;59.958;17.726;2023-05-10T10:10:27;27.20;28.30
10431;DHT22;5262;59.958;17.726;2023-05-10T10:12:53;27.10;27.20
10431;DHT22;5262;59.958;17.726;2023-05-10T10:15:23;26.70;28.20
10431;DHT22;5262;59.958;17.726;2023-05-10T10:17:50;26.90;28.80
10431;DHT22;5262;59.958;17.726;2023-05-10T10:20:20;26.50;27.90
10431;DHT22;5262;59.958;17.726;2023-05-10T10:22:47;26.80;27.70
10431;DHT22;5262;59.958;17.726;2023-05-10T10:25:14;26.90;27.30
10431;DHT22;5262;59.958;17.726;2023-05-10T10:35:36;26.40;28.10
10431;DHT22;5262;59.958;17.726;2023-05-10T10:38:02;26.00;28.10
10431;DHT22;5262;59.958;17.726;2023-05-10T10:40:32;25.80;28.40
10431;DHT22;5262;59.958;17.726;2023-05-10T10:46:15;26.50;27.50
10431;DHT22;5262;59.958;17.726;2023-05-10T10:49:09;26.90;27.60
10431;DHT22;5262;59.958;17.726;2023-05-10T10:51:38;25.70;27.70
10431;DHT22;5262;59.958;17.726;2023-05-10T10:54:10;26.10;27.50
10431;DHT22;5262;59.958;17.726;2023-05-10T10:56:36;26.00;28.40
10431;DHT22;5262;59.958;17.726;2023-05-10T10:59:02;25.70;27.50
10431;DHT22;5262;59.958;17.726;2023-05-10T11:01:33;25.70;28.70
10431;DHT22;5262;59.958;17.726;2023-05-10T11:06:33;26.00;26.70
10431;DHT22;5262;59.958;17.726;2023-05-10T11:09:06;25.80;27.70
10431;DHT22;5262;59.958;17.726;2023-05-10T11:11:34;25.70;27.90
10431;DHT22;5262;59.958;17.726;2023-05-10T11:14:07;25.60;27.70
10431;DHT22;5262;59.958;17.726;2023-05-10T11:16:51;26.20;28.20
10431;DHT22;5262;59.958;17.726;2023-05-10T11:19:17;25.70;28.60
10431;DHT22;5262;59.958;17.726;2023-05-10T11:21:48;25.50;28.10
10431;DHT22;5262;59.958;17.726;2023-05-10T11:24:19;25.10;27.80
10431;DHT22;5262;59.958;17.726;2023-05-10T11:26:45;25.30;27.30
10431;DHT22;5262;59.958;17.726;2023-05-10T11:29:12;25.30;28.00
10431;DHT22;5262;59.958;17.726;2023-05-10T11:31:43;25.60;27.40
10431;DHT22;5262;59.958;17.726;2023-05-10T11:34:10;25.30;27.80
10431;DHT22;5262;59.958;17.726;2023-05-10T11:36:36;25.10;27.70
10431;DHT22;5262;59.958;17.726;2023-05-10T11:39:03;24.70;27.80
10431;DHT22;5262;59.958;17.726;2023-05-10T11:41:29;24.10;28.40
10431;DHT22;5262;59.958;17.726;2023-05-10T11:43:56;24.10;28.70
10431;DHT22;5262;59.958;17.726;2023-05-10T11:46:24;24.10;30.30
10431;DHT22;5262;59.958;17.726;2023-05-10T11:48:51;23.70;29.50
10431;DHT22;5262;59.958;17.726;2023-05-10T11:51:24;23.10;29.30
10431;DHT22;5262;59.958;17.726;2023-05-10T11:53:53;23.20;27.80
10431;DHT22;5262;59.958;17.726;2023-05-10T11:56:19;23.10;29.80
10431;DHT22;5262;59.958;17.726;2023-05-10T11:58:55;22.90;29.30
10431;DHT22;5262;59.958;17.726;2023-05-10T12:01:22;23.30;30.20
10431;DHT22;5262;59.958;17.726;2023-05-10T12:03:50;22.90;29.00
10431;DHT22;5262;59.958;17.726;2023-05-10T12:06:15;22.80;29.10
10431;DHT22;5262;59.958;17.726;2023-05-10T12:08:47;22.50;29.30
10431;DHT22;5262;59.958;17.726;2023-05-10T12:11:15;22.80;28.60
10431;DHT22;5262;59.958;17.726;2023-05-10T12:13:42;22.50;29.40
10431;DHT22;5262;59.958;17.726;2023-05-10T12:16:41;22.70;29.00
10431;DHT22;5262;59.958;17.726;2023-05-10T12:19:08;22.80;29.40
10431;DHT22;5262;59.958;17.726;2023-05-10T12:21:34;22.50;28.80
10431;DHT22;5262;59.958;17.726;2023-05-10T12:24:01;22.10;29.80
10431;DHT22;5262;59.958;17.726;2023-05-10T12:26:28;22.20;29.10
10431;DHT22;5262;59.958;17.726;2023-05-10T12:28:54;22.20;31.00
10431;DHT22;5262;59.958;17.726;2023-05-10T12:31:20;22.20;29.90
10431;DHT22;5262;59.958;17.726;2023-05-10T12:33:46;22.10;30.20
10431;DHT22;5262;59.958;17.726;2023-05-10T12:36:15;21.60;30.60
10431;DHT22;5262;59.958;17.726;2023-05-10T12:38:43;21.90;30.80
10431;DHT22;5262;59.958;17.726;2023-05-10T12:41:10;22.00;30.00
10431;DHT22;5262;59.958;17.726;2023-05-10T12:43:37;22.50;31.40
10431;DHT22;5262;59.958;17.726;2023-05-10T12:46:11;22.40;29.60
10431;DHT22;5262;59.958;17.726;2023-05-10T12:48:37;22.30;31.70
10431;DHT22;5262;59.958;17.726;2023-05-10T12:51:04;21.80;31.50
10431;DHT22;5262;59.958;17.726;2023-05-10T12:53:30;21.40;29.70
10431;DHT22;5262;59.958;17.726;2023-05-10T12:55:57;21.50;29.90
10431;DHT22;5262;59.958;17.726;2023-05-10T12:58:23;21.30;29.70
10431;DHT22;5262;59.958;17.726;2023-05-10T13:00:50;21.60;30.70
10431;DHT22;5262;59.958;17.726;2023-05-10T13:03:17;21.80;30.00
10431;DHT22;5262;59.958;17.726;2023-05-10T13:05:43;21.90;31.40
10431;DHT22;5262;59.958;17.726;2023-05-10T13:08:08;21.80;30.50
10431;DHT22;5262;59.958;17.726;2023-05-10T13:10:34;21.60;30.50
10431;DHT22;5262;59.958;17.726;2023-05-10T13:13:00;21.70;30.50
10431;DHT22;5262;59.958;17.726;2023-05-10T13:15:26;21.70;30.00
10431;DHT22;5262;59.958;17.726;2023-05-10T13:17:53;21.70;29.10
10431;DHT22;5262;59.958;17.726;2023-05-10T13:20:19;21.50;29.60
10431;DHT22;5262;59.958;17.726;2023-05-10T13:22:46;21.30;30.00
10431;DHT22;5262;59.958;17.726;2023-05-10T13:25:12;21.10;31.30
10431;DHT22;5262;59.958;17.726;2023-05-10T13:27:39;21.10;30.50
10431;DHT22;5262;59.958;17.726;2023-05-10T13:30:05;20.80;31.20
10431;DHT22;5262;59.958;17.726;2023-05-10T13:32:31;20.50;30.00
10431;DHT22;5262;59.958;17.726;2023-05-10T13:34:57;20.70;32.10
10431;DHT22;5262;59.958;17.726;2023-05-10T13:37:23;20.30;31.00
10431;DHT22;5262;59.958;17.726;2023-05-10T13:39:49;20.10;30.70
10431;DHT22;5262;59.958;17.726;2023-05-10T13:42:14;20.30;32.10
10431;DHT22;5262;59.958;17.726;2023-05-10T13:44:40;20.50;32.10
10431;DHT22;5262;59.958;17.726;2023-05-10T13:47:06;20.50;32.30
10431;DHT22;5262;59.958;17.726;2023-05-10T13:49:32;20.30;32.50
10431;DHT22;5262;59.958;17.726;2023-05-10T13:51:59;20.60;33.20
10431;DHT22;5262;59.958;17.726;2023-05-10T13:54:31;20.70;33.30
10431;DHT22;5262;59.958;17.726;2023-05-10T13:56:57;20.40;33.30
10431;DHT22;5262;59.958;17.726;2023-05-10T13:59:23;20.50;32.90
10431;DHT22;5262;59.958;17.726;2023-05-10T14:01:48;20.60;32.10
10431;DHT22;5262;59.958;17.726;2023-05-10T14:04:14;20.00;31.60
10431;DHT22;5262;59.958;17.726;2023-05-10T14:06:39;19.90;32.90
10431;DHT22;5262;59.958;17.726;2023-05-10T14:09:05;19.80;32.10
10431;DHT22;5262;59.958;17.726;2023-05-10T14:11:31;20.00;32.30
10431;DHT22;5262;59.958;17.726;2023-05-10T14:13:56;19.90;33.40
10431;DHT22;5262;59.958;17.726;2023-05-10T14:16:22;19.80;33.30
10431;DHT22;5262;59.958;17.726;2023-05-10T14:18:47;19.90;33.50
10431;DHT22;5262;59.958;17.726;2023-05-10T14:21:13;19.90;33.80
10431;DHT22;5262;59.958;17.726;2023-05-10T14:23:39;19.50;32.20
10431;DHT22;5262;59.958;17.726;2023-05-10T14:26:04;19.50;33.20
10431;DHT22;5262;59.958;17.726;2023-05-10T14:28:30;19.50;33.00
10431;DHT22;5262;59.958;17.726;2023-05-10T14:30:56;19.50;31.90
10431;DHT22;5262;59.958;17.726;2023-05-10T14:33:21;19.70;32.90
10431;DHT22;5262;59.958;17.726;2023-05-10T14:35:47;19.80;34.40
10431;DHT22;5262;59.958;17.726;2023-05-10T14:38:14;19.60;31.70
10431;DHT22;5262;59.958;17.726;2023-05-10T14:40:40;19.60;31.80
10431;DHT22;5262;59.958;17.726;2023-05-10T14:43:06;19.40;31.50
10431;DHT22;5262;59.958;17.726;2023-05-10T14:45:31;19.40;31.60
10431;DHT22;5262;59.958;17.726;2023-05-10T14:47:58;19.30;30.70
10431;DHT22;5262;59.958;17.726;2023-05-10T14:50:24;19.10;30.90
10431;DHT22;5262;59.958;17.726;2023-05-10T14:52:50;19.00;31.10
10431;DHT22;5262;59.958;17.726;2023-05-10T14:55:15;19.00;31.60
10431;DHT22;5262;59.958;17.726;2023-05-10T14:57:41;18.90;31.30
10431;DHT22;5262;59.958;17.726;2023-05-10T15:00:07;19.00;31.50
10431;DHT22;5262;59.958;17.726;2023-05-10T15:02:33;19.20;33.00
10431;DHT22;5262;59.958;17.726;2023-05-10T15:04:59;18.80;31.30
10431;DHT22;5262;59.958;17.726;2023-05-10T15:07:25;18.80;31.80
10431;DHT22;5262;59.958;17.726;2023-05-10T15:09:51;18.80;32.10
10431;DHT22;5262;59.958;17.726;2023-05-10T15:12:18;18.60;33.00
10431;DHT22;5262;59.958;17.726;2023-05-10T15:14:43;18.70;32.70
10431;DHT22;5262;59.958;17.726;2023-05-10T15:17:10;18.80;32.80
10431;DHT22;5262;59.958;17.726;2023-05-10T15:19:36;18.70;32.70
10431;DHT22;5262;59.958;17.726;2023-05-10T15:22:03;18.40;32.40
10431;DHT22;5262;59.958;17.726;2023-05-10T15:24:29;18.40;33.30
10431;DHT22;5262;59.958;17.726;2023-05-10T15:26:54;18.60;32.90
10431;DHT22;5262;59.958;17.726;2023-05-10T15:29:20;18.50;33.20
10431;DHT22;5262;59.958;17.726;2023-05-10T15:31:52;18.20;32.50
10431;DHT22;5262;59.958;17.726;2023-05-10T15:34:18;18.10;33.50
10431;DHT22;5262;59.958;17.726;2023-05-10T15:36:44;18.20;33.40
10431;DHT22;5262;59.958;17.726;2023-05-10T15:39:11;18.00;32.70
10431;DHT22;5262;59.958;17.726;2023-05-10T15:41:36;18.10;33.80
10431;DHT22;5262;59.958;17.726;2023-05-10T15:44:02;18.20;33.00
10431;DHT22;5262;59.958;17.726;2023-05-10T15:46:28;17.80;33.00
10431;DHT22;5262;59.958;17.726;2023-05-10T15:48:54;17.80;33.20
10431;DHT22;5262;59.958;17.726;2023-05-10T15:51:20;17.90;33.40
10431;DHT22;5262;59.958;17.726;2023-05-10T15:53:46;17.60;33.40
10431;DHT22;5262;59.958;17.726;2023-05-10T15:56:12;17.60;33.50
10431;DHT22;5262;59.958;17.726;2023-05-10T15:58:39;17.40;32.90
10431;DHT22;5262;59.958;17.726;2023-05-10T16:01:05;17.40;33.40
10431;DHT22;5262;59.958;17.726;2023-05-10T16:03:31;17.30;32.90